createdAt,value
2022-11-24T00:10:21.194Z,10.65
2022-11-24T00:22:21.191Z,10.64
2022-11-24T00:34:21.297Z,10.64
2022-11-24T00:46:21.362Z,10.63
2022-11-24T00:58:21.296Z,10.62
2022-11-24T01:10:21.320Z,10.62
2022-11-24T01:22:21.301Z,10.61
2022-11-24T01:34:21.214Z,10.60
2022-11-24T01:46:21.299Z,10.59
2022-11-24T01:58:21.312Z,10.58
2022-11-24T02:10:21.235Z,10.58
2022-11-24T02:22:21.284Z,10.56
2022-11-24T02:34:21.341Z,10.56
2022-11-24T02:46:21.262Z,10.55
2022-11-24T02:58:21.288Z,10.54
2022-11-24T03:10:21.286Z,10.54
2022-11-24T03:22:21.301Z,10.52
2022-11-24T03:34:21.197Z,10.52
2022-11-24T03:46:21.327Z,10.50
2022-11-24T03:58:21.285Z,10.50
2022-11-24T04:10:21.260Z,10.48
2022-11-24T04:22:21.316Z,10.47
2022-11-24T04:34:21.258Z,10.46
2022-11-24T04:46:21.334Z,10.45
2022-11-24T04:58:21.300Z,10.44
2022-11-24T05:10:21.188Z,10.42
2022-11-24T05:22:21.196Z,10.42
2022-11-24T05:34:21.245Z,10.41
2022-11-24T05:46:21.340Z,10.40
2022-11-24T05:58:21.324Z,10.39
2022-11-24T06:10:21.288Z,10.38
2022-11-24T06:22:21.274Z,10.37
2022-11-24T06:34:21.315Z,10.35
2022-11-24T06:46:21.919Z,10.35
2022-11-24T06:58:21.193Z,10.34
2022-11-24T07:10:21.202Z,10.34
2022-11-24T07:22:21.305Z,10.33
2022-11-24T07:34:21.203Z,10.32
2022-11-24T07:46:21.245Z,10.34
2022-11-24T07:58:21.307Z,10.32
2022-11-24T08:10:21.312Z,10.31
2022-11-24T08:22:21.276Z,10.31
2022-11-24T08:34:21.296Z,10.31
2022-11-24T08:46:21.293Z,10.32
2022-11-24T08:58:21.189Z,10.38
2022-11-24T09:10:21.368Z,10.41
2022-11-24T09:22:21.191Z,10.38
2022-11-24T09:34:21.305Z,10.42
2022-11-24T09:46:21.408Z,10.41
2022-11-24T09:58:21.196Z,10.70
2022-11-24T10:10:24.609Z,10.60
2022-11-24T10:22:21.306Z,10.60
2022-11-24T10:34:21.318Z,10.58
2022-11-24T10:46:21.304Z,10.58
2022-11-24T10:58:21.282Z,10.58
2022-11-24T11:10:21.373Z,10.62
2022-11-24T11:22:21.207Z,10.61
2022-11-24T11:34:26.905Z,10.62
2022-11-24T11:46:21.400Z,10.65
2022-11-24T11:58:21.211Z,10.93
2022-11-24T12:10:21.297Z,10.82
2022-11-24T12:22:21.210Z,10.82
2022-11-24T12:34:21.211Z,10.82
2022-11-24T12:46:21.368Z,10.83
2022-11-24T12:58:21.314Z,10.81
2022-11-24T13:10:30.153Z,10.82
2022-11-24T13:22:21.292Z,10.96
2022-11-24T13:34:21.200Z,10.95
2022-11-24T13:46:21.252Z,10.97
2022-11-24T13:58:21.261Z,10.94
2022-11-24T14:10:21.247Z,10.88
2022-11-24T14:22:21.191Z,10.89
2022-11-24T14:34:21.199Z,10.89
2022-11-24T14:46:21.221Z,10.87
2022-11-24T14:58:21.390Z,10.87
2022-11-24T15:10:21.187Z,10.86
2022-11-24T15:22:21.259Z,10.85
2022-11-24T15:34:21.276Z,10.84
2022-11-24T15:46:21.290Z,10.83
2022-11-24T15:58:21.256Z,10.82
2022-11-24T16:10:21.246Z,10.82
2022-11-24T16:22:21.233Z,10.81
2022-11-24T16:34:21.288Z,10.81
2022-11-24T16:46:21.380Z,10.80
2022-11-24T16:58:21.302Z,10.80
2022-11-24T17:10:21.288Z,10.80
2022-11-24T17:22:21.189Z,10.79
2022-11-24T17:34:21.288Z,10.78
2022-11-24T17:46:21.409Z,10.78
2022-11-24T17:58:21.280Z,10.77
2022-11-24T18:10:21.305Z,10.77
2022-11-24T18:22:36.652Z,10.77
2022-11-24T18:34:21.265Z,10.76
2022-11-24T18:46:21.287Z,10.76
2022-11-24T18:58:21.306Z,10.75
2022-11-24T19:10:21.281Z,10.75
2022-11-24T19:22:21.246Z,10.73
2022-11-24T19:34:21.288Z,10.73
2022-11-24T19:46:21.354Z,10.72
2022-11-24T19:58:21.312Z,10.72
2022-11-24T20:10:21.250Z,10.72
2022-11-24T20:22:21.194Z,10.69
2022-11-24T20:34:21.273Z,10.70
2022-11-24T20:46:21.236Z,10.70
2022-11-24T20:58:21.256Z,10.69
2022-11-24T21:10:21.291Z,10.68
2022-11-24T21:22:21.307Z,10.68
2022-11-24T21:34:21.236Z,10.67
2022-11-24T21:46:21.258Z,10.66
2022-11-24T21:58:21.299Z,10.65
2022-11-24T22:10:21.187Z,10.63
2022-11-24T22:22:21.335Z,10.64
2022-11-24T22:34:21.870Z,10.63
2022-11-24T22:46:21.418Z,10.62
2022-11-24T22:58:21.238Z,10.61
2022-11-24T23:10:21.200Z,10.60
2022-11-24T23:22:21.250Z,10.60
2022-11-24T23:34:21.199Z,10.59
2022-11-24T23:46:21.262Z,10.58
2022-11-24T23:58:21.198Z,10.57
